createdAt,value
2022-12-08T00:01:23.975Z,3.02
2022-12-08T00:03:52.220Z,2.23
2022-12-08T00:06:50.282Z,3.05
2022-12-08T00:09:39.157Z,3.03
2022-12-08T00:12:13.608Z,3.08
2022-12-08T00:14:45.840Z,3.02
2022-12-08T00:17:15.267Z,2.91
2022-12-08T00:19:43.073Z,2.50
2022-12-08T00:22:11.396Z,2.30
2022-12-08T00:24:40.403Z,2.32
2022-12-08T00:27:12.591Z,2.82
2022-12-08T00:29:39.378Z,3.06
2022-12-08T00:32:07.030Z,2.80
2022-12-08T00:34:34.030Z,2.73
2022-12-08T00:37:00.987Z,3.06
2022-12-08T00:39:27.629Z,3.04
2022-12-08T00:42:12.576Z,3.20
2022-12-08T00:44:44.987Z,2.95
2022-12-08T00:47:13.093Z,2.62
2022-12-08T00:49:40.274Z,2.90
2022-12-08T00:52:07.184Z,3.34
2022-12-08T00:54:33.954Z,3.28
2022-12-08T00:57:00.652Z,2.91
2022-12-08T00:59:27.392Z,3.46
2022-12-08T01:01:54.085Z,3.59
2022-12-08T01:04:21.288Z,2.99
2022-12-08T01:06:48.888Z,3.39
2022-12-08T01:09:16.747Z,3.19
2022-12-08T01:11:44.728Z,3.76
2022-12-08T01:14:12.301Z,3.33
2022-12-08T01:16:41.499Z,3.17
2022-12-08T01:19:11.131Z,3.89
2022-12-08T01:21:38.137Z,3.32
2022-12-08T01:24:05.524Z,4.01
2022-12-08T01:26:32.181Z,3.32
2022-12-08T01:28:59.592Z,3.44
2022-12-08T01:31:26.471Z,3.86
2022-12-08T01:33:53.561Z,3.62
2022-12-08T01:36:26.287Z,4.09
2022-12-08T01:38:54.157Z,4.08
2022-12-08T01:41:26.166Z,3.78
2022-12-08T01:43:57.787Z,3.67
2022-12-08T01:46:25.598Z,3.53
2022-12-08T01:48:57.007Z,3.36
2022-12-08T01:51:24.503Z,3.70
2022-12-08T01:53:51.828Z,3.48
2022-12-08T01:56:31.599Z,3.50
2022-12-08T01:58:58.458Z,3.56
2022-12-08T02:01:25.458Z,3.88
2022-12-08T02:03:58.559Z,3.88
2022-12-08T02:06:27.769Z,3.90
2022-12-08T02:08:57.583Z,3.61
2022-12-08T02:11:24.290Z,3.65
2022-12-08T02:13:53.319Z,3.49
2022-12-08T02:16:43.095Z,3.59
2022-12-08T02:20:00.304Z,3.46
2022-12-08T02:22:51.890Z,3.36
2022-12-08T02:25:45.412Z,3.25
2022-12-08T02:28:52.722Z,3.24
2022-12-08T02:31:41.100Z,2.94
2022-12-08T02:34:16.824Z,2.90
2022-12-08T02:37:10.463Z,2.97
2022-12-08T02:40:22.389Z,3.02
2022-12-08T02:42:58.851Z,2.66
2022-12-08T02:45:29.053Z,2.48
2022-12-08T02:47:58.113Z,2.32
2022-12-08T02:50:25.058Z,3.00
2022-12-08T02:52:51.867Z,2.71
2022-12-08T02:55:49.629Z,3.05
2022-12-08T02:58:35.412Z,3.06
2022-12-08T03:01:41.140Z,3.13
2022-12-08T03:04:24.752Z,3.07
2022-12-08T03:06:56.663Z,3.00
2022-12-08T03:09:35.438Z,2.87
2022-12-08T03:12:25.746Z,2.93
2022-12-08T03:14:56.890Z,2.68
2022-12-08T03:17:26.537Z,2.89
2022-12-08T03:19:54.769Z,2.79
2022-12-08T03:22:25.896Z,2.61
2022-12-08T03:24:53.532Z,2.25
2022-12-08T03:27:23.609Z,2.36
2022-12-08T03:29:53.364Z,1.63
2022-12-08T03:32:33.659Z,2.36
2022-12-08T03:35:08.330Z,2.24
2022-12-08T03:37:37.041Z,1.94
2022-12-08T03:40:06.928Z,1.80
2022-12-08T03:42:33.987Z,1.70
2022-12-08T03:45:00.663Z,1.58
2022-12-08T03:47:27.384Z,1.60
2022-12-08T03:49:54.056Z,1.54
2022-12-08T03:52:20.780Z,1.96
2022-12-08T03:54:47.392Z,1.65
2022-12-08T03:57:14.014Z,1.89
2022-12-08T03:59:40.688Z,2.09
2022-12-08T04:02:08.318Z,2.16
2022-12-08T04:04:35.200Z,2.16
2022-12-08T04:07:02.092Z,1.57
2022-12-08T04:09:28.843Z,2.34
2022-12-08T04:11:55.539Z,2.24
2022-12-08T04:14:22.310Z,2.17
2022-12-08T04:16:49.216Z,2.19
2022-12-08T04:19:16.033Z,2.27
2022-12-08T04:21:42.691Z,2.01
2022-12-08T04:24:09.430Z,2.28
2022-12-08T04:26:36.033Z,2.16
2022-12-08T04:29:02.883Z,2.10
2022-12-08T04:31:29.658Z,2.23
2022-12-08T04:33:57.514Z,2.09
2022-12-08T04:36:24.452Z,2.39
2022-12-08T04:38:51.289Z,2.29
2022-12-08T04:41:21.322Z,2.18
2022-12-08T04:43:48.402Z,2.21
2022-12-08T04:46:15.678Z,2.04
2022-12-08T04:48:42.544Z,1.80
2022-12-08T04:51:17.001Z,1.86
2022-12-08T04:53:46.977Z,2.40
2022-12-08T04:56:18.699Z,2.51
2022-12-08T04:58:45.933Z,2.34
2022-12-08T05:01:13.652Z,2.57
2022-12-08T05:03:40.569Z,1.78
2022-12-08T05:06:07.559Z,1.88
2022-12-08T05:08:34.417Z,2.48
2022-12-08T05:11:06.026Z,2.20
2022-12-08T05:13:33.706Z,2.40
2022-12-08T05:16:09.973Z,2.04
2022-12-08T05:18:37.890Z,2.64
2022-12-08T05:21:05.750Z,1.99
2022-12-08T05:23:33.511Z,2.19
2022-12-08T05:26:00.745Z,2.04
2022-12-08T05:28:44.198Z,1.84
2022-12-08T05:31:12.836Z,2.21
2022-12-08T05:33:39.833Z,2.12
2022-12-08T05:36:07.484Z,2.64
2022-12-08T05:38:34.326Z,2.15
2022-12-08T05:41:01.061Z,2.45
2022-12-08T05:43:27.774Z,2.51
2022-12-08T05:45:54.767Z,2.59
2022-12-08T05:48:21.646Z,2.43
2022-12-08T05:50:49.063Z,2.54
2022-12-08T05:53:18.316Z,2.56
2022-12-08T05:55:46.115Z,2.31
2022-12-08T05:58:17.549Z,2.19
2022-12-08T06:00:45.742Z,2.49
2022-12-08T06:03:13.646Z,2.13
2022-12-08T06:05:41.249Z,2.07
2022-12-08T06:08:08.550Z,2.41
2022-12-08T06:10:35.348Z,2.02
2022-12-08T06:13:02.235Z,2.07
2022-12-08T06:15:28.856Z,1.97
2022-12-08T06:17:55.588Z,2.09
2022-12-08T06:20:22.356Z,2.68
2022-12-08T06:22:48.995Z,2.81
2022-12-08T06:25:15.674Z,2.76
2022-12-08T06:27:42.441Z,2.79
2022-12-08T06:30:09.424Z,2.57
2022-12-08T06:32:36.734Z,2.86
2022-12-08T06:35:04.025Z,2.71
2022-12-08T06:37:30.876Z,2.68
2022-12-08T06:39:57.845Z,3.28
2022-12-08T06:42:43.119Z,3.24
2022-12-08T06:45:10.700Z,3.82
2022-12-08T06:47:37.580Z,3.86
2022-12-08T06:50:06.594Z,4.00
2022-12-08T06:52:34.904Z,4.06
2022-12-08T06:55:03.723Z,3.95
2022-12-08T06:57:31.015Z,4.11
2022-12-08T06:59:57.877Z,4.20
2022-12-08T07:02:24.550Z,3.62
2022-12-08T07:04:51.698Z,3.68
2022-12-08T07:07:18.402Z,3.59
2022-12-08T07:09:45.486Z,3.17
2022-12-08T07:12:12.288Z,3.28
2022-12-08T07:14:39.287Z,3.70
2022-12-08T07:17:06.230Z,3.79
2022-12-08T07:19:33.466Z,4.62
2022-12-08T07:22:00.086Z,4.44
2022-12-08T07:24:26.923Z,4.90
2022-12-08T07:26:53.751Z,5.16
2022-12-08T07:29:24.708Z,5.33
2022-12-08T07:31:53.280Z,5.53
2022-12-08T07:34:20.164Z,5.62
2022-12-08T07:36:46.804Z,5.80
2022-12-08T07:39:13.517Z,5.84
2022-12-08T07:41:40.354Z,6.08
2022-12-08T07:44:07.023Z,6.24
2022-12-08T07:46:33.859Z,6.29
2022-12-08T07:49:00.852Z,6.33
2022-12-08T07:51:28.595Z,6.11
2022-12-08T07:53:55.514Z,6.38
2022-12-08T07:56:23.108Z,6.53
2022-12-08T07:58:50.952Z,6.56
2022-12-08T08:01:33.081Z,6.75
2022-12-08T08:04:02.059Z,6.78
2022-12-08T08:06:28.792Z,6.84
2022-12-08T08:08:55.488Z,6.85
2022-12-08T08:11:22.765Z,7.12
2022-12-08T08:14:02.565Z,7.36
2022-12-08T08:16:34.963Z,7.21
2022-12-08T08:19:04.646Z,6.84
2022-12-08T08:21:47.403Z,7.10
2022-12-08T08:24:14.755Z,6.71
2022-12-08T08:26:41.727Z,6.78
2022-12-08T08:29:08.363Z,6.75
2022-12-08T08:31:35.200Z,6.95
2022-12-08T08:34:06.686Z,6.90
2022-12-08T08:36:33.575Z,6.51
2022-12-08T08:39:00.271Z,6.67
2022-12-08T08:41:26.989Z,6.21
2022-12-08T08:43:55.965Z,6.33
2022-12-08T08:46:22.866Z,6.17
2022-12-08T08:48:49.841Z,5.89
2022-12-08T08:51:16.705Z,5.81
2022-12-08T08:53:44.160Z,5.65
2022-12-08T08:56:16.111Z,5.80
2022-12-08T08:58:43.161Z,6.17
2022-12-08T09:01:15.567Z,5.46
2022-12-08T09:03:42.108Z,6.07
2022-12-08T09:06:09.005Z,5.40
2022-12-08T09:08:35.868Z,6.19
2022-12-08T09:11:02.535Z,5.81
2022-12-08T09:13:29.119Z,6.41
2022-12-08T09:15:56.888Z,6.29
2022-12-08T09:18:23.541Z,6.47
2022-12-08T09:20:50.271Z,6.44
2022-12-08T09:23:16.985Z,6.75
2022-12-08T09:25:47.288Z,6.56
2022-12-08T09:28:14.637Z,6.88
2022-12-08T09:30:42.276Z,6.91
2022-12-08T09:33:09.068Z,7.01
2022-12-08T09:35:36.294Z,7.04
2022-12-08T09:38:03.222Z,6.90
2022-12-08T09:40:33.788Z,7.61
2022-12-08T09:43:24.761Z,7.56
2022-12-08T09:45:52.064Z,6.94
2022-12-08T09:48:24.948Z,7.09
2022-12-08T09:50:57.207Z,6.73
2022-12-08T09:53:39.907Z,7.37
2022-12-08T09:56:16.193Z,7.45
2022-12-08T09:59:06.492Z,6.83
2022-12-08T10:01:38.463Z,7.53
2022-12-08T10:04:34.886Z,7.55
2022-12-08T10:07:19.468Z,7.25
2022-12-08T10:10:14.091Z,7.60
2022-12-08T10:12:49.649Z,8.20
2022-12-08T10:15:45.204Z,9.00
2022-12-08T10:18:26.302Z,8.96
2022-12-08T10:20:55.118Z,9.07
2022-12-08T10:23:44.310Z,9.24
2022-12-08T10:26:14.917Z,8.75
2022-12-08T10:28:45.172Z,8.51
2022-12-08T10:31:22.108Z,8.31
2022-12-08T10:33:57.635Z,8.60
2022-12-08T10:36:49.060Z,8.73
2022-12-08T10:39:31.642Z,9.32
2022-12-08T10:42:15.114Z,9.14
2022-12-08T10:44:58.201Z,9.30
2022-12-08T10:47:27.971Z,9.07
2022-12-08T10:50:19.045Z,9.32
2022-12-08T10:52:54.629Z,8.68
2022-12-08T10:55:23.736Z,8.78
2022-12-08T10:57:50.665Z,9.02
2022-12-08T11:00:21.183Z,9.25
2022-12-08T11:03:00.675Z,9.14
2022-12-08T11:05:31.776Z,9.34
2022-12-08T11:07:59.392Z,9.43
2022-12-08T11:10:36.890Z,9.50
2022-12-08T11:13:18.579Z,9.43
2022-12-08T11:15:47.206Z,9.51
2022-12-08T11:18:23.089Z,9.34
2022-12-08T11:20:59.030Z,9.38
2022-12-08T11:23:28.678Z,9.63
2022-12-08T11:26:01.474Z,10.15
2022-12-08T11:28:29.107Z,10.56
2022-12-08T11:31:05.139Z,10.16
2022-12-08T11:33:31.953Z,9.90
2022-12-08T11:36:05.888Z,9.46
2022-12-08T11:38:35.363Z,9.74
2022-12-08T11:41:15.528Z,9.67
2022-12-08T11:43:47.154Z,10.00
2022-12-08T11:46:20.659Z,9.97
2022-12-08T11:49:06.688Z,9.96
2022-12-08T11:51:39.728Z,10.16
2022-12-08T11:54:30.891Z,10.34
2022-12-08T11:57:13.303Z,10.57
2022-12-08T11:59:48.246Z,10.67
2022-12-08T12:02:20.188Z,10.22
2022-12-08T12:05:02.084Z,10.46
2022-12-08T12:07:58.224Z,10.55
2022-12-08T12:10:53.112Z,10.43
2022-12-08T12:13:38.533Z,11.05
2022-12-08T12:16:33.589Z,11.00
2022-12-08T12:19:17.345Z,10.70
2022-12-08T12:21:54.180Z,11.01
2022-12-08T12:24:25.873Z,11.01
2022-12-08T12:27:02.642Z,11.15
2022-12-08T12:29:39.077Z,11.33
2022-12-08T12:32:11.283Z,10.77
2022-12-08T12:34:47.744Z,11.54
2022-12-08T12:37:19.319Z,11.27
2022-12-08T12:39:52.120Z,11.24
2022-12-08T12:42:38.693Z,11.18
2022-12-08T12:45:16.306Z,11.36
2022-12-08T12:47:57.157Z,11.13
2022-12-08T12:50:33.454Z,11.31
2022-12-08T12:53:26.904Z,10.94
2022-12-08T12:56:02.515Z,11.08
2022-12-08T12:58:32.358Z,11.09
2022-12-08T13:01:11.743Z,10.98
2022-12-08T13:04:03.652Z,10.46
2022-12-08T13:06:50.566Z,10.61
2022-12-08T13:09:39.373Z,10.90
2022-12-08T13:12:18.153Z,10.57
2022-12-08T13:14:50.002Z,10.39
2022-12-08T13:17:30.888Z,10.51
2022-12-08T13:20:00.476Z,10.77
2022-12-08T13:22:57.707Z,11.48
2022-12-08T13:26:11.745Z,11.39
2022-12-08T13:29:01.445Z,11.57
2022-12-08T13:31:51.444Z,11.45
2022-12-08T13:34:33.746Z,11.02
2022-12-08T13:37:06.984Z,11.27
2022-12-08T13:39:39.663Z,11.28
2022-12-08T13:42:12.525Z,10.93
2022-12-08T13:57:03.972Z,10.61
2022-12-08T13:59:35.063Z,10.17
2022-12-08T14:02:15.208Z,10.49
2022-12-08T14:05:16.810Z,10.56
2022-12-08T14:07:34.721Z,10.44
2022-12-08T14:10:03.777Z,10.46
2022-12-08T14:12:31.696Z,9.97
2022-12-08T14:15:05.885Z,10.26
2022-12-08T14:17:33.939Z,10.44
2022-12-08T14:20:04.369Z,10.29
2022-12-08T14:22:38.715Z,9.98
2022-12-08T14:25:07.755Z,10.09
2022-12-08T14:27:36.752Z,9.54
2022-12-08T14:30:13.673Z,9.91
2022-12-08T14:32:47.220Z,9.82
2022-12-08T14:35:31.265Z,9.59
2022-12-08T14:38:01.024Z,9.64
2022-12-08T14:40:36.656Z,9.20
2022-12-08T14:43:09.434Z,9.55
2022-12-08T14:45:39.175Z,9.39
2022-12-08T14:48:21.527Z,9.55
2022-12-08T14:51:12.053Z,9.52
2022-12-08T14:53:43.717Z,9.12
2022-12-08T14:56:24.847Z,9.53
2022-12-08T14:59:05.136Z,9.57
2022-12-08T15:01:32.608Z,8.88
2022-12-08T15:04:12.187Z,9.15
2022-12-08T15:07:05.747Z,9.51
2022-12-08T15:09:37.390Z,9.00
2022-12-08T15:12:24.708Z,9.28
2022-12-08T15:14:57.760Z,9.31
2022-12-08T15:17:35.526Z,8.96
2022-12-08T15:20:04.477Z,9.08
2022-12-08T15:22:31.822Z,8.75
2022-12-08T15:24:58.618Z,8.90
2022-12-08T15:27:25.939Z,9.14
2022-12-08T15:29:53.340Z,8.44
2022-12-08T15:32:22.427Z,9.17
2022-12-08T15:34:49.435Z,8.80
2022-12-08T15:37:22.768Z,8.40
2022-12-08T15:39:50.026Z,8.31
2022-12-08T15:42:17.003Z,8.42
2022-12-08T15:44:44.332Z,8.80
2022-12-08T15:47:22.557Z,8.15
2022-12-08T15:49:51.296Z,8.71
2022-12-08T15:52:23.444Z,8.55
2022-12-08T15:54:50.287Z,8.47
2022-12-08T16:00:51.203Z,8.62
2022-12-08T16:07:19.175Z,8.26
2022-12-08T16:09:11.847Z,8.11
2022-12-08T16:12:06.599Z,8.19
2022-12-08T16:17:21.882Z,7.96
2022-12-08T16:19:48.563Z,7.91
2022-12-08T16:22:52.751Z,8.06
2022-12-08T16:25:19.925Z,7.82
2022-12-08T16:28:08.220Z,7.92
2022-12-08T16:30:39.550Z,8.05
2022-12-08T16:33:06.397Z,7.84
2022-12-08T16:35:33.296Z,7.67
2022-12-08T16:38:00.162Z,7.84
2022-12-08T16:40:26.966Z,7.60
2022-12-08T16:42:53.761Z,7.50
2022-12-08T16:45:25.059Z,7.80
2022-12-08T16:47:55.032Z,7.76
2022-12-08T16:50:29.904Z,7.76
2022-12-08T16:52:59.234Z,7.67
2022-12-08T16:55:26.586Z,7.86
2022-12-08T16:57:53.994Z,7.84
2022-12-08T17:00:24.366Z,7.55
2022-12-08T17:02:52.368Z,7.61
2022-12-08T17:05:21.281Z,7.48
2022-12-08T17:07:50.174Z,7.38
2022-12-08T17:10:23.049Z,7.37
2022-12-08T17:12:51.092Z,7.48
2022-12-08T17:15:20.185Z,7.42
2022-12-08T17:17:47.148Z,7.23
2022-12-08T17:20:20.195Z,7.45
2022-12-08T17:22:47.406Z,7.40
2022-12-08T17:25:14.614Z,7.53
2022-12-08T17:27:42.244Z,7.59
2022-12-08T17:30:11.846Z,7.57
2022-12-08T17:32:39.031Z,7.43
2022-12-08T17:35:06.807Z,7.26
2022-12-08T17:37:34.110Z,7.33
2022-12-08T17:40:00.924Z,7.39
2022-12-08T17:42:27.601Z,7.30
2022-12-08T17:44:54.927Z,7.25
2022-12-08T17:47:22.971Z,7.25
2022-12-08T17:49:49.840Z,7.17
2022-12-08T17:52:16.776Z,7.37
2022-12-08T17:54:43.502Z,7.26
2022-12-08T17:57:10.375Z,7.28
2022-12-08T17:59:37.338Z,7.32
2022-12-08T18:02:04.692Z,7.26
2022-12-08T18:04:31.709Z,7.34
2022-12-08T18:07:00.791Z,7.34
2022-12-08T18:09:30.275Z,7.41
2022-12-08T18:11:57.023Z,7.35
2022-12-08T18:14:23.749Z,7.43
2022-12-08T18:16:50.584Z,7.48
2022-12-08T18:19:17.400Z,7.45
2022-12-08T18:21:44.540Z,7.24
2022-12-08T18:24:23.454Z,7.30
2022-12-08T18:26:52.692Z,7.32
2022-12-08T18:29:20.850Z,7.15
2022-12-08T18:31:47.735Z,7.38
2022-12-08T18:34:14.686Z,7.36
2022-12-08T18:36:41.466Z,7.26
2022-12-08T18:39:21.603Z,7.14
2022-12-08T18:41:48.249Z,7.13
2022-12-08T18:44:14.841Z,7.05
2022-12-08T18:46:41.742Z,6.95
2022-12-08T18:49:13.674Z,6.99
2022-12-08T18:51:40.358Z,6.98
2022-12-08T18:54:07.271Z,6.80
2022-12-08T18:56:35.561Z,6.87
2022-12-08T18:59:08.166Z,6.92
2022-12-08T19:01:37.392Z,6.95
2022-12-08T19:06:54.796Z,6.84
2022-12-08T19:09:22.646Z,6.97
2022-12-08T19:11:49.478Z,6.77
2022-12-08T19:14:16.258Z,6.91
2022-12-08T19:16:42.999Z,6.94
2022-12-08T19:19:09.871Z,6.97
2022-12-08T19:21:44.498Z,7.00
2022-12-08T19:24:11.342Z,6.96
2022-12-08T19:26:39.500Z,6.93
2022-12-08T19:29:06.110Z,7.08
2022-12-08T19:31:33.085Z,7.06
2022-12-08T19:33:59.794Z,7.12
2022-12-08T19:36:27.792Z,7.05
2022-12-08T19:39:13.429Z,7.05
2022-12-08T19:41:58.834Z,7.04
2022-12-08T19:44:34.606Z,6.97
2022-12-08T19:47:01.894Z,6.99
2022-12-08T19:49:28.958Z,6.80
2022-12-08T19:51:56.217Z,6.73
2022-12-08T19:54:23.013Z,6.77
2022-12-08T19:56:49.662Z,6.62
2022-12-08T19:59:16.360Z,6.66
2022-12-08T20:01:44.209Z,6.74
2022-12-08T20:04:16.017Z,6.66
2022-12-08T20:06:43.994Z,6.42
2022-12-08T20:09:12.369Z,6.46
2022-12-08T20:11:39.450Z,6.29
2022-12-08T20:14:07.282Z,6.36
2022-12-08T20:16:34.125Z,6.42
2022-12-08T20:19:02.188Z,6.12
2022-12-08T20:21:29.080Z,6.29
2022-12-08T20:23:56.201Z,6.12
2022-12-08T20:26:23.625Z,6.06
2022-12-08T20:28:51.075Z,5.87
2022-12-08T20:31:24.017Z,5.76
2022-12-08T20:33:50.937Z,5.87
2022-12-08T20:36:20.594Z,5.91
2022-12-08T20:38:49.261Z,5.72
2022-12-08T20:41:16.356Z,5.69
2022-12-08T20:43:47.178Z,5.56
2022-12-08T20:46:16.646Z,5.61
2022-12-08T20:48:44.328Z,5.69
2022-12-08T20:51:16.387Z,5.67
2022-12-08T20:53:43.801Z,5.60
2022-12-08T20:56:15.960Z,5.65
2022-12-08T20:58:43.228Z,5.60
2022-12-08T21:01:12.406Z,5.56
2022-12-08T21:03:39.709Z,5.49
2022-12-08T21:06:07.596Z,5.57
2022-12-08T21:08:35.076Z,5.50
2022-12-08T21:11:02.314Z,5.46
2022-12-08T21:13:29.476Z,5.57
2022-12-08T21:15:57.209Z,5.59
2022-12-08T21:18:25.475Z,5.67
2022-12-08T21:20:53.263Z,5.72
2022-12-08T21:23:20.136Z,5.67
2022-12-08T21:25:47.580Z,5.70
2022-12-08T21:28:14.811Z,5.70
2022-12-08T21:30:43.094Z,5.73
2022-12-08T21:33:10.208Z,5.78
2022-12-08T21:35:37.334Z,5.92
2022-12-08T21:38:06.515Z,5.99
2022-12-08T21:40:35.342Z,6.04
2022-12-08T21:43:03.815Z,5.90
2022-12-08T21:45:31.141Z,5.80
2022-12-08T21:48:00.451Z,5.96
2022-12-08T21:50:29.101Z,6.02
2022-12-08T21:52:55.953Z,6.13
2022-12-08T21:55:23.825Z,6.09
2022-12-08T21:57:50.819Z,6.10
2022-12-08T22:00:18.493Z,6.05
2022-12-08T22:02:45.713Z,6.07
2022-12-08T22:05:12.784Z,5.97
2022-12-08T22:07:40.633Z,6.04
2022-12-08T22:10:08.616Z,6.04
2022-12-08T22:12:36.900Z,6.05
2022-12-08T22:15:09.474Z,6.01
2022-12-08T22:17:38.686Z,6.07
2022-12-08T22:20:07.951Z,6.04
2022-12-08T22:22:35.488Z,6.09
2022-12-08T22:25:08.991Z,6.07
2022-12-08T22:27:35.825Z,5.92
2022-12-08T22:30:02.890Z,5.91
2022-12-08T22:32:29.737Z,6.02
2022-12-08T22:34:56.665Z,6.07
2022-12-08T22:37:23.441Z,6.07
2022-12-08T22:39:50.169Z,5.97
2022-12-08T22:42:16.888Z,6.05
2022-12-08T22:44:43.979Z,5.96
2022-12-08T22:47:10.912Z,5.93
2022-12-08T22:49:37.736Z,6.04
2022-12-08T22:52:04.627Z,6.14
2022-12-08T22:54:31.636Z,6.06
2022-12-08T22:56:58.383Z,6.08
2022-12-08T22:59:25.060Z,5.94
2022-12-08T23:01:53.924Z,6.12
2022-12-08T23:04:20.829Z,6.07
2022-12-08T23:06:47.920Z,6.18
2022-12-08T23:09:15.152Z,6.17
2022-12-08T23:11:42.281Z,6.07
2022-12-08T23:14:08.908Z,6.03
2022-12-08T23:16:35.834Z,5.92
2022-12-08T23:19:02.711Z,5.89
2022-12-08T23:21:29.807Z,5.84
2022-12-08T23:23:56.681Z,5.77
2022-12-08T23:26:26.766Z,5.76
2022-12-08T23:28:54.498Z,5.63
2022-12-08T23:31:22.248Z,5.72
2022-12-08T23:33:49.260Z,5.65
2022-12-08T23:36:17.876Z,5.73
2022-12-08T23:38:44.864Z,5.48
2022-12-08T23:41:14.353Z,5.37
2022-12-08T23:43:46.937Z,5.30
2022-12-08T23:46:15.205Z,5.37
2022-12-08T23:48:42.164Z,5.45
2022-12-08T23:51:09.338Z,5.32
2022-12-08T23:53:36.321Z,5.35
2022-12-08T23:56:08.197Z,5.20
2022-12-08T23:58:36.151Z,5.26
